Time;durP1;ratioP1;P1;durP2;ratioP2;P2;SDS_P1;SDS_P2;PMS_P1;PMS_P2;Temp;Humidity;BMP_temperature;BMP_pressure;BME280_temperature;BME280_humidity;BME280_pressure;Samples;Min_cycle;Max_cycle;Signal;HPM_P1;HPM_P2
2021/01/03 00:01:51;;;;;;;13.38;8.90;;;8.10;71.50;;;;;;5002399;28;20399;-75
2021/01/03 00:04:17;;;;;;;11.32;7.47;;;8.10;72.00;;;;;;4999683;28;20097;-77
2021/01/03 00:06:43;;;;;;;9.77;7.28;;;8.10;71.50;;;;;;5003405;28;20033;-74
2021/01/03 00:09:10;;;;;;;10.77;6.93;;;8.10;71.50;;;;;;5002349;28;20088;-74
2021/01/03 00:11:37;;;;;;;12.23;8.00;;;8.10;71.90;;;;;;5001752;28;20496;-73
2021/01/03 00:14:04;;;;;;;12.48;8.88;;;8.10;71.40;;;;;;5000198;28;20088;-74
2021/01/03 00:16:29;;;;;;;11.13;8.30;;;8.10;71.30;;;;;;5000867;28;20030;-74
2021/01/03 00:18:55;;;;;;;11.43;8.27;;;8.10;71.30;;;;;;5002230;28;20026;-74
2021/01/03 00:21:21;;;;;;;12.52;7.57;;;8.10;71.30;;;;;;5002214;28;20398;-74
2021/01/03 00:23:46;;;;;;;15.02;9.40;;;8.10;71.30;;;;;;5000801;28;20555;-75
2021/01/03 00:26:12;;;;;;;11.15;8.18;;;8.10;71.30;;;;;;5001443;28;20426;-75
2021/01/03 00:28:37;;;;;;;9.05;7.00;;;8.10;71.40;;;;;;5001403;28;20101;-75
2021/01/03 00:31:03;;;;;;;10.00;7.00;;;8.00;71.30;;;;;;5000930;28;20109;-74
2021/01/03 00:33:29;;;;;;;12.85;8.27;;;8.00;71.30;;;;;;5000198;28;20026;-74
2021/01/03 00:35:54;;;;;;;11.32;7.53;;;8.00;71.30;;;;;;5002427;28;20030;-75
2021/01/03 00:38:20;;;;;;;12.02;8.00;;;8.10;71.40;;;;;;4999118;28;20026;-75
2021/01/03 00:40:46;;;;;;;10.05;6.95;;;8.10;71.40;;;;;;5002830;28;20030;-75
2021/01/03 00:43:13;;;;;;;11.48;8.38;;;8.00;71.30;;;;;;5000207;28;20030;-75
2021/01/03 00:45:40;;;;;;;10.20;7.25;;;8.00;71.30;;;;;;5001834;28;20706;-74
2021/01/03 00:48:07;;;;;;;13.02;7.40;;;8.00;71.30;;;;;;5000715;28;20034;-74
2021/01/03 00:50:33;;;;;;;10.88;7.03;;;8.00;71.30;;;;;;4995910;28;20376;-74
2021/01/03 00:52:58;;;;;;;10.05;7.32;;;7.90;71.30;;;;;;5001260;28;20038;-75
2021/01/03 00:55:25;;;;;;;11.25;7.63;;;8.00;71.30;;;;;;4999560;28;20038;-75
2021/01/03 00:57:50;;;;;;;9.85;6.97;;;8.00;71.30;;;;;;5001284;28;20376;-74
2021/01/03 01:00:24;;;;;;;9.32;6.97;;;8.00;71.30;;;;;;4997075;28;20052;-75
2021/01/03 01:02:49;;;;;;;10.40;6.90;;;8.00;71.30;;;;;;4993229;28;20026;-74
2021/01/03 01:05:15;;;;;;;11.20;7.32;;;8.00;71.30;;;;;;4998851;28;20036;-74
2021/01/03 01:07:41;;;;;;;10.20;7.50;;;8.00;71.30;;;;;;5006406;28;20462;-74
2021/01/03 01:10:11;;;;;;;12.48;8.32;;;8.00;71.30;;;;;;5005968;28;20034;-74
2021/01/03 01:12:37;;;;;;;10.80;6.83;;;7.90;71.20;;;;;;5006058;28;20041;-75
2021/01/03 01:15:17;;;;;;;11.43;7.70;;;7.90;71.20;;;;;;5001394;28;20030;-74
2021/01/03 01:17:44;;;;;;;9.98;6.75;;;7.90;71.20;;;;;;5004758;28;20469;-74
2021/01/03 01:20:10;;;;;;;10.85;6.97;;;8.00;71.30;;;;;;5005607;28;20513;-74
2021/01/03 01:22:36;;;;;;;9.25;6.85;;;7.90;71.20;;;;;;5003324;28;20050;-74
2021/01/03 01:25:02;;;;;;;11.48;7.65;;;7.90;71.20;;;;;;5006466;28;20094;-75
2021/01/03 01:27:28;;;;;;;11.55;6.65;;;7.90;71.20;;;;;;5005485;28;20037;-75
2021/01/03 01:29:53;;;;;;;9.80;6.85;;;7.90;71.30;;;;;;4999294;28;20089;-74
2021/01/03 01:32:19;;;;;;;9.57;6.57;;;7.90;71.30;;;;;;5005180;28;20036;-74
2021/01/03 01:34:44;;;;;;;10.07;6.30;;;8.00;71.40;;;;;;5005635;28;20814;-75
2021/01/03 01:37:09;;;;;;;11.13;7.88;;;7.80;71.20;;;;;;5003070;28;20045;-75
2021/01/03 01:39:35;;;;;;;10.75;7.47;;;7.90;71.30;;;;;;5006154;28;20037;-75
2021/01/03 01:42:00;;;;;;;9.30;6.88;;;7.90;71.30;;;;;;5006174;28;20037;-74
2021/01/03 01:44:26;;;;;;;11.52;7.60;;;7.80;71.50;;;;;;5003067;28;20034;-74
2021/01/03 01:47:25;;;;;;;9.93;7.28;;;7.80;71.30;;;;;;5002931;28;20483;-74
2021/01/03 01:49:54;;;;;;;10.40;7.15;;;7.80;71.50;;;;;;4985378;28;20042;-74
2021/01/03 01:52:21;;;;;;;10.70;7.68;;;7.80;71.40;;;;;;4996981;28;20049;-74
2021/01/03 01:54:58;;;;;;;13.05;7.30;;;7.80;71.40;;;;;;5005639;28;20030;-74
2021/01/03 01:57:32;;;;;;;12.35;8.50;;;7.80;71.50;;;;;;5006440;28;20030;-76
2021/01/03 02:00:18;;;;;;;11.25;7.95;;;7.90;71.60;;;;;;4998628;28;20041;-75
2021/01/03 02:03:02;;;;;;;10.38;6.90;;;7.90;71.60;;;;;;5008212;28;20044;-74
2021/01/03 02:05:32;;;;;;;11.63;7.60;;;7.90;71.50;;;;;;5004232;28;20030;-74
2021/01/03 02:08:18;;;;;;;12.02;7.82;;;7.80;71.40;;;;;;5003736;28;20038;-75
2021/01/03 02:10:47;;;;;;;10.57;7.32;;;7.90;71.40;;;;;;4981884;28;20421;-74
2021/01/03 02:13:46;;;;;;;10.45;6.68;;;8.00;71.50;;;;;;4985306;28;20500;-75
2021/01/03 02:16:18;;;;;;;12.50;7.85;;;7.80;71.40;;;;;;4987762;28;20041;-74
2021/01/03 02:18:45;;;;;;;10.95;6.88;;;7.80;71.30;;;;;;5009910;28;20041;-74
2021/01/03 02:21:34;;;;;;;12.00;7.53;;;7.90;71.30;;;;;;5010490;28;20112;-74
2021/01/03 02:24:45;;;;;;;9.93;6.93;;;7.80;71.40;;;;;;5018047;23;20050;-74
2021/01/03 02:27:34;;;;;;;10.48;6.20;;;7.80;71.30;;;;;;4969590;28;20484;-74
2021/01/03 02:30:01;;;;;;;9.88;6.75;;;7.90;71.30;;;;;;5021491;28;20026;-74
2021/01/03 02:32:30;;;;;;;10.85;6.07;;;7.80;71.20;;;;;;5031067;28;20494;-74
2021/01/03 02:34:55;;;;;;;10.27;6.85;;;7.80;71.30;;;;;;5024150;28;20116;-74
2021/01/03 02:37:30;;;;;;;13.95;9.63;;;7.80;71.30;;;;;;5013210;28;20463;-74
2021/01/03 02:39:59;;;;;;;12.25;8.45;;;7.90;71.40;;;;;;5004942;28;20034;-74
2021/01/03 02:42:30;;;;;;;10.52;7.45;;;7.80;71.30;;;;;;5012338;28;20490;-74
2021/01/03 02:44:57;;;;;;;10.32;7.30;;;7.80;71.30;;;;;;5001742;28;20072;-75
2021/01/03 02:47:28;;;;;;;8.77;6.75;;;7.80;71.20;;;;;;5011912;28;20064;-74
2021/01/03 02:49:53;;;;;;;9.63;6.65;;;7.80;71.30;;;;;;5012024;28;20486;-74
2021/01/03 02:52:31;;;;;;;12.07;7.68;;;7.80;71.30;;;;;;5009337;28;20038;-74
2021/01/03 02:54:56;;;;;;;11.00;7.55;;;7.90;71.30;;;;;;5011984;28;20407;-74
2021/01/03 02:57:22;;;;;;;8.65;6.35;;;7.80;71.20;;;;;;5011987;28;20030;-74
2021/01/03 02:59:47;;;;;;;10.88;6.72;;;7.80;71.30;;;;;;5010732;28;20041;-74
2021/01/03 03:02:13;;;;;;;9.13;6.38;;;7.80;71.30;;;;;;5010652;28;20038;-73
2021/01/03 03:04:38;;;;;;;9.52;6.68;;;7.80;71.40;;;;;;5011678;28;20038;-73
2021/01/03 03:07:04;;;;;;;11.95;7.80;;;7.80;71.40;;;;;;5008765;28;20042;-74
2021/01/03 03:09:29;;;;;;;9.30;6.45;;;7.80;71.40;;;;;;5011136;28;20034;-74
2021/01/03 03:11:55;;;;;;;10.15;6.95;;;7.80;71.40;;;;;;5011602;28;20415;-74
2021/01/03 03:14:20;;;;;;;10.43;6.85;;;7.80;71.30;;;;;;5009340;28;20053;-74
2021/01/03 03:16:46;;;;;;;10.15;6.95;;;7.80;71.30;;;;;;5010967;28;20041;-74
2021/01/03 03:19:11;;;;;;;9.35;6.38;;;7.80;71.20;;;;;;5011324;28;20042;-75
2021/01/03 03:21:37;;;;;;;9.95;6.22;;;7.80;71.30;;;;;;5022088;28;20033;-74
2021/01/03 03:24:03;;;;;;;9.60;6.25;;;7.80;71.20;;;;;;5030946;28;20133;-74
2021/01/03 03:26:29;;;;;;;13.30;8.73;;;7.80;71.20;;;;;;5030561;28;20505;-74
2021/01/03 03:28:54;;;;;;;9.60;6.60;;;7.80;71.20;;;;;;5028274;28;20037;-74
2021/01/03 03:31:26;;;;;;;9.32;6.43;;;7.80;71.20;;;;;;5012310;28;20048;-74
2021/01/03 03:33:52;;;;;;;11.63;7.18;;;7.70;71.20;;;;;;5010432;28;20028;-72
2021/01/03 03:36:17;;;;;;;10.52;6.65;;;7.70;71.20;;;;;;5010170;28;20121;-74
2021/01/03 03:38:43;;;;;;;9.90;6.20;;;7.80;71.30;;;;;;5010355;28;20018;-73
2021/01/03 03:41:08;;;;;;;9.02;6.50;;;7.70;71.80;;;;;;5011142;28;20040;-72
2021/01/03 03:43:34;;;;;;;9.68;6.55;;;7.80;71.30;;;;;;5009360;28;20030;-73
2021/01/03 03:45:59;;;;;;;7.78;6.03;;;7.70;71.30;;;;;;5010085;28;20065;-74
2021/01/03 03:48:25;;;;;;;8.50;5.88;;;7.70;71.30;;;;;;5011245;28;20026;-74
2021/01/03 03:50:50;;;;;;;10.23;6.28;;;7.70;71.30;;;;;;5008426;28;20064;-74
2021/01/03 03:53:16;;;;;;;9.75;5.57;;;7.70;71.40;;;;;;5010590;28;20416;-74
2021/01/03 03:55:41;;;;;;;8.90;5.97;;;7.70;71.90;;;;;;5010844;28;20506;-74
2021/01/03 03:58:07;;;;;;;9.07;5.43;;;7.70;71.50;;;;;;5010350;28;20030;-75
2021/01/03 04:00:32;;;;;;;11.35;6.38;;;7.70;71.60;;;;;;5009934;28;20042;-73
2021/01/03 04:02:58;;;;;;;8.57;5.78;;;7.70;71.50;;;;;;5010234;28;20104;-72
2021/01/03 04:05:25;;;;;;;8.65;6.07;;;7.70;72.00;;;;;;5024005;28;20108;-72
2021/01/03 04:07:51;;;;;;;7.63;5.63;;;7.70;71.40;;;;;;5010496;28;20491;-74
2021/01/03 04:10:18;;;;;;;8.68;6.22;;;7.70;71.40;;;;;;5010841;28;20030;-74
2021/01/03 04:12:44;;;;;;;9.05;6.45;;;7.70;71.40;;;;;;5010516;28;20033;-73
2021/01/03 04:15:12;;;;;;;9.80;6.80;;;7.70;71.40;;;;;;5007710;28;20042;-72
2021/01/03 04:17:38;;;;;;;7.70;5.88;;;7.70;71.40;;;;;;5010451;28;20029;-73
2021/01/03 04:20:06;;;;;;;9.70;6.28;;;7.70;71.50;;;;;;5010424;28;20026;-74
2021/01/03 04:22:32;;;;;;;9.30;6.50;;;7.70;71.40;;;;;;5009981;28;20045;-73
2021/01/03 04:25:00;;;;;;;9.73;5.95;;;7.70;71.40;;;;;;5010097;28;20037;-73
2021/01/03 04:27:26;;;;;;;9.70;6.63;;;7.60;71.30;;;;;;5010600;28;20068;-74
2021/01/03 04:29:52;;;;;;;8.60;6.03;;;7.70;71.30;;;;;;5006378;28;20084;-72
2021/01/03 04:32:18;;;;;;;10.43;6.72;;;7.70;71.30;;;;;;5010497;28;20115;-73
2021/01/03 04:34:44;;;;;;;11.30;7.45;;;7.70;71.30;;;;;;5010087;28;20077;-74
2021/01/03 04:37:10;;;;;;;13.20;7.85;;;7.70;71.20;;;;;;5007647;28;20042;-74
2021/01/03 04:39:36;;;;;;;11.45;7.22;;;7.60;71.00;;;;;;5010318;28;20034;-74
2021/01/03 04:42:03;;;;;;;12.80;8.00;;;7.60;71.00;;;;;;5010165;28;20038;-73
2021/01/03 04:44:34;;;;;;;9.77;6.30;;;7.60;71.00;;;;;;5008687;28;20064;-72
2021/01/03 04:47:05;;;;;;;10.15;6.65;;;7.60;71.10;;;;;;5009543;28;20041;-74
2021/01/03 04:49:51;;;;;;;11.57;7.88;;;7.60;71.20;;;;;;5009872;28;20034;-73
2021/01/03 04:52:42;;;;;;;8.25;6.28;;;7.50;71.20;;;;;;5007564;28;20121;-74
2021/01/03 04:55:14;;;;;;;9.95;7.03;;;7.60;71.40;;;;;;5009488;28;20153;-73
2021/01/03 04:57:55;;;;;;;13.50;8.55;;;7.60;71.30;;;;;;5008883;28;20114;-74
2021/01/03 05:00:31;;;;;;;14.45;9.02;;;7.60;71.40;;;;;;5020535;28;20176;-72
2021/01/03 05:03:11;;;;;;;10.82;7.07;;;7.60;71.30;;;;;;5007394;28;20564;-74
2021/01/03 05:05:45;;;;;;;9.60;6.82;;;7.60;71.30;;;;;;5005281;28;20042;-74
2021/01/03 05:08:31;;;;;;;12.82;8.82;;;7.50;71.30;;;;;;5005869;28;20033;-74
2021/01/03 05:11:02;;;;;;;12.88;7.68;;;7.50;71.20;;;;;;5005540;28;20026;-74
2021/01/03 05:13:43;;;;;;;15.38;8.88;;;7.50;71.20;;;;;;5005972;28;20030;-74
2021/01/03 05:16:16;;;;;;;11.43;7.47;;;7.50;71.20;;;;;;5004626;28;20037;-73
2021/01/03 05:18:41;;;;;;;12.73;7.88;;;7.50;71.10;;;;;;5007268;28;20083;-75
2021/01/03 05:21:07;;;;;;;14.75;9.23;;;7.50;71.10;;;;;;5007223;28;20026;-74
2021/01/03 05:23:36;;;;;;;12.57;7.85;;;7.50;71.10;;;;;;5007167;28;20614;-75
2021/01/03 05:26:04;;;;;;;15.13;7.90;;;7.50;71.10;;;;;;5006329;28;20033;-74
2021/01/03 05:28:33;;;;;;;13.02;7.93;;;7.50;71.10;;;;;;5005830;28;20100;-74
2021/01/03 05:31:17;;;;;;;12.77;8.52;;;7.50;71.10;;;;;;5004822;28;20045;-74
2021/01/03 05:33:57;;;;;;;12.55;8.20;;;7.50;71.10;;;;;;5000759;28;20038;-73
2021/01/03 05:36:42;;;;;;;11.23;7.38;;;7.50;71.00;;;;;;5006843;28;20088;-75
2021/01/03 05:39:15;;;;;;;12.85;8.07;;;7.50;71.10;;;;;;5000641;28;20097;-72
2021/01/03 05:42:06;;;;;;;17.70;8.15;;;7.40;71.10;;;;;;5006474;28;20079;-73
2021/01/03 05:44:35;;;;;;;16.77;9.82;;;7.40;71.10;;;;;;5006412;28;20034;-73
2021/01/03 05:47:17;;;;;;;16.10;9.80;;;7.40;71.00;;;;;;5011639;28;20084;-75
2021/01/03 05:49:43;;;;;;;16.73;9.60;;;7.40;70.90;;;;;;5006512;28;20034;-75
2021/01/03 05:52:26;;;;;;;11.77;8.23;;;7.30;70.80;;;;;;5005596;28;20064;-74
2021/01/03 05:54:53;;;;;;;13.90;8.93;;;7.30;70.80;;;;;;5006824;28;20067;-74
2021/01/03 05:57:29;;;;;;;15.77;8.95;;;7.30;70.80;;;;;;5006039;28;20029;-71
2021/01/03 05:59:55;;;;;;;13.65;8.57;;;7.30;70.80;;;;;;4998165;28;20388;-74
2021/01/03 06:02:28;;;;;;;18.58;10.88;;;7.20;70.70;;;;;;5004511;28;20038;-74
2021/01/03 06:05:02;;;;;;;14.27;8.68;;;7.30;70.80;;;;;;4997050;28;20038;-75
2021/01/03 06:07:30;;;;;;;11.43;7.80;;;7.20;70.80;;;;;;5001364;28;20567;-73
2021/01/03 06:09:55;;;;;;;11.20;7.55;;;7.20;70.80;;;;;;4996152;28;20120;-74
2021/01/03 06:12:22;;;;;;;14.02;8.15;;;7.20;70.80;;;;;;5002315;28;20129;-73
2021/01/03 06:14:53;;;;;;;13.20;7.13;;;7.20;70.70;;;;;;5007519;28;20034;-73
2021/01/03 06:17:27;;;;;;;;;;;7.10;70.60;;;;;;5022899;28;20103;-74
2021/01/03 06:20:00;;;;;;;12.02;7.75;;;7.10;70.70;;;;;;5022815;28;19988;-74
2021/01/03 06:22:34;;;;;;;12.27;7.32;;;7.10;70.30;;;;;;5000377;28;20073;-74
2021/01/03 06:25:08;;;;;;;11.52;7.68;;;7.10;70.40;;;;;;4996009;28;20125;-73
2021/01/03 06:27:34;;;;;;;13.50;8.05;;;7.00;70.40;;;;;;5012459;28;20061;-74
2021/01/03 06:30:09;;;;;;;13.68;8.25;;;6.90;70.50;;;;;;5003551;28;20030;-74
2021/01/03 06:32:44;;;;;;;14.82;8.07;;;7.00;70.60;;;;;;4995969;28;20042;-74
2021/01/03 06:35:15;;;;;;;12.63;8.00;;;7.00;70.80;;;;;;4990877;28;20033;-74
2021/01/03 06:38:06;;;;;;;13.68;8.50;;;6.80;70.70;;;;;;4984883;28;20034;-74
2021/01/03 06:40:37;;;;;;;14.13;8.98;;;6.90;71.00;;;;;;4991967;28;20030;-74
2021/01/03 06:43:50;;;;;;;12.93;8.30;;;6.80;71.00;;;;;;4985763;28;20034;-74
2021/01/03 06:46:52;;;;;;;12.75;7.45;;;6.80;71.20;;;;;;4986156;28;20038;-73
2021/01/03 06:49:26;;;;;;;11.75;7.28;;;6.80;71.30;;;;;;4991194;28;20054;-74
2021/01/03 06:51:57;;;;;;;11.65;7.70;;;6.80;71.20;;;;;;4988154;28;20042;-75
2021/01/03 06:54:30;;;;;;;;;;;6.90;71.30;;;;;;4995116;28;20046;-72
2021/01/03 06:57:20;;;;;;;10.55;6.95;;;6.80;71.30;;;;;;4992457;28;19948;-75
2021/01/03 07:00:17;;;;;;;13.23;8.38;;;6.80;71.00;;;;;;4994207;28;20072;-74
2021/01/03 07:02:59;;;;;;;12.25;7.63;;;6.80;71.00;;;;;;4995509;28;20026;-72
2021/01/03 07:05:25;;;;;;;12.38;7.28;;;6.80;71.00;;;;;;5010818;28;20037;-73
2021/01/03 07:08:08;;;;;;;12.52;8.15;;;6.80;71.10;;;;;;4992416;28;20034;-74
2021/01/03 07:10:36;;;;;;;13.35;7.90;;;6.80;71.20;;;;;;4993600;28;20030;-74
2021/01/03 07:13:22;;;;;;;11.55;7.68;;;6.80;71.20;;;;;;4989172;28;20113;-74
2021/01/03 07:15:47;;;;;;;9.95;6.55;;;6.80;71.20;;;;;;4989390;28;20093;-72
2021/01/03 07:18:36;;;;;;;14.45;8.10;;;6.80;71.20;;;;;;4996769;28;20061;-75
2021/01/03 07:21:03;;;;;;;9.30;6.05;;;6.80;71.30;;;;;;4989737;28;20042;-73
2021/01/03 07:23:47;;;;;;;13.63;8.27;;;6.80;71.20;;;;;;4991400;28;20578;-73
2021/01/03 07:26:31;;;;;;;11.75;7.07;;;6.80;71.10;;;;;;4994161;28;20092;-73
2021/01/03 07:29:00;;;;;;;16.70;11.15;;;6.80;71.10;;;;;;4995702;28;20030;-74
2021/01/03 07:31:40;;;;;;;21.90;13.77;;;6.90;71.20;;;;;;5010584;28;20096;-72
2021/01/03 07:34:18;;;;;;;17.55;10.40;;;6.90;71.20;;;;;;5005548;28;20033;-73
2021/01/03 07:37:12;;;;;;;15.60;9.85;;;6.90;71.20;;;;;;5011606;28;20103;-74
2021/01/03 07:40:04;;;;;;;11.18;8.60;;;6.80;71.20;;;;;;4985347;28;20036;-74
2021/01/03 07:42:33;;;;;;;;;;;6.90;71.20;;;;;;4988320;28;20057;-73
2021/01/03 07:45:04;;;;;;;11.02;7.72;;;6.90;71.20;;;;;;4987539;28;20393;-73
2021/01/03 07:47:36;;;;;;;11.13;7.57;;;6.90;71.00;;;;;;4997098;28;20030;-73
2021/01/03 07:50:17;;;;;;;11.27;7.88;;;6.90;71.10;;;;;;4988916;28;20173;-74
2021/01/03 07:52:55;;;;;;;9.60;6.15;;;6.90;71.10;;;;;;4993517;28;20030;-73
2021/01/03 07:55:25;;;;;;;11.45;7.05;;;6.90;71.20;;;;;;4990298;28;20042;-74
2021/01/03 07:58:04;;;;;;;9.48;6.75;;;6.90;71.20;;;;;;4994542;28;20034;-73
2021/01/03 08:00:34;;;;;;;9.70;6.43;;;7.00;71.30;;;;;;4988203;28;20045;-75
2021/01/03 08:03:21;;;;;;;10.20;6.95;;;6.90;71.20;;;;;;4987003;28;20034;-72
2021/01/03 08:05:47;;;;;;;10.32;6.78;;;7.00;71.20;;;;;;4990956;28;20038;-74
2021/01/03 08:08:21;;;;;;;7.85;5.65;;;6.90;71.10;;;;;;4987245;28;20561;-73
2021/01/03 08:10:49;;;;;;;10.57;6.88;;;6.90;71.10;;;;;;4993592;28;20045;-73
2021/01/03 08:13:24;;;;;;;9.93;5.85;;;7.00;71.10;;;;;;4988438;28;20125;-74
2021/01/03 08:15:55;;;;;;;10.52;6.20;;;7.00;71.10;;;;;;4998248;28;20121;-73
2021/01/03 08:18:21;;;;;;;9.05;5.78;;;7.00;71.10;;;;;;4994868;28;20056;-76
2021/01/03 08:20:50;;;;;;;8.77;5.70;;;7.00;71.10;;;;;;5006303;28;20037;-76
2021/01/03 08:23:24;;;;;;;9.35;6.15;;;6.90;71.10;;;;;;4988049;28;20034;-75
2021/01/03 08:26:07;;;;;;;9.40;6.93;;;7.00;71.10;;;;;;5013159;23;20050;-74
2021/01/03 08:28:46;;;;;;;10.18;6.22;;;7.00;71.10;;;;;;4991637;28;20073;-75
2021/01/03 08:31:13;;;;;;;9.88;5.88;;;7.00;71.10;;;;;;4978593;28;20034;-75
2021/01/03 08:33:42;;;;;;;10.40;6.25;;;7.00;71.10;;;;;;4993274;28;20469;-75
2021/01/03 08:36:35;;;;;;;10.38;6.65;;;7.00;71.20;;;;;;4979151;28;20434;-75
2021/01/03 08:39:13;;;;;;;9.40;5.95;;;7.00;71.10;;;;;;4975609;28;20023;-74
2021/01/03 08:41:59;;;;;;;8.27;5.38;;;7.10;71.20;;;;;;4971557;28;20057;-74
2021/01/03 08:44:30;;;;;;;9.88;5.20;;;7.00;71.20;;;;;;4963954;28;20026;-75
2021/01/03 08:47:17;;;;;;;9.48;6.30;;;7.00;71.20;;;;;;4980233;28;20038;-75
2021/01/03 08:49:43;;;;;;;7.85;4.70;;;7.00;71.10;;;;;;4973507;28;20049;-74
2021/01/03 08:52:21;;;;;;;8.85;6.20;;;7.10;71.20;;;;;;4966327;28;20270;-75
2021/01/03 08:54:50;;;;;;;7.28;4.55;;;7.10;71.20;;;;;;4973857;28;20034;-74
2021/01/03 08:57:17;;;;;;;7.75;5.43;;;7.10;71.20;;;;;;4967130;28;20069;-75
2021/01/03 08:59:44;;;;;;;8.27;5.40;;;7.10;71.20;;;;;;4972077;28;20088;-74
2021/01/03 09:02:25;;;;;;;7.40;5.03;;;7.10;71.30;;;;;;4960761;28;20562;-74
2021/01/03 09:04:59;;;;;;;9.45;5.13;;;7.10;71.20;;;;;;4972523;28;20042;-75
2021/01/03 09:07:27;;;;;;;7.72;4.38;;;7.10;71.20;;;;;;4964578;28;20092;-75
2021/01/03 09:09:53;;;;;;;6.45;4.40;;;7.20;71.30;;;;;;4972701;28;20400;-75
2021/01/03 09:12:41;;;;;;;7.63;5.10;;;7.20;71.30;;;;;;4967598;28;20504;-75
2021/01/03 09:15:23;;;;;;;6.72;4.25;;;7.10;71.30;;;;;;4990090;28;20038;-75
2021/01/03 09:18:22;;;;;;;8.93;5.78;;;7.20;71.30;;;;;;4994276;28;20065;-75
2021/01/03 09:20:53;;;;;;;6.82;4.47;;;7.20;71.30;;;;;;4985010;28;20054;-75
2021/01/03 09:23:25;;;;;;;7.93;4.95;;;7.20;71.30;;;;;;4983291;28;20064;-75
2021/01/03 09:25:57;;;;;;;7.13;5.03;;;7.20;71.20;;;;;;4992169;28;20046;-73
2021/01/03 09:28:38;;;;;;;5.60;4.20;;;7.30;71.30;;;;;;4985530;28;20041;-73
2021/01/03 09:31:09;;;;;;;;;;;7.20;71.70;;;;;;4977493;28;20034;-74
2021/01/03 09:33:35;;;;;;;7.43;4.97;;;7.40;71.10;;;;;;4965897;28;20338;-74
2021/01/03 09:36:24;;;;;;;5.63;4.35;;;7.40;71.00;;;;;;4972317;28;20487;-74
2021/01/03 09:38:49;;;;;;;5.70;3.60;;;7.40;71.00;;;;;;4965749;28;20029;-75
2021/01/03 09:41:28;;;;;;;6.38;4.43;;;7.30;71.00;;;;;;4957064;28;20023;-75
2021/01/03 09:44:23;;;;;;;7.38;4.53;;;7.30;70.90;;;;;;4961538;28;20035;-75
2021/01/03 09:47:04;;;;;;;5.95;4.32;;;7.40;70.90;;;;;;4972340;28;20026;-75
2021/01/03 09:49:36;;;;;;;;;;;7.40;70.90;;;;;;4956688;28;20030;-74
2021/01/03 09:52:28;;;;;;;5.70;3.70;;;7.30;70.60;;;;;;4960914;28;19918;-74
2021/01/03 09:55:12;;;;;;;3.85;2.92;;;7.40;70.60;;;;;;4961315;28;20823;-75
2021/01/03 09:57:47;;;;;;;4.85;3.45;;;7.70;70.90;;;;;;4955823;28;20042;-75
2021/01/03 10:00:16;;;;;;;5.78;3.55;;;7.40;70.90;;;;;;4970428;28;20042;-74
2021/01/03 10:02:42;;;;;;;4.20;3.13;;;7.40;70.90;;;;;;4971490;28;20041;-73
2021/01/03 10:05:24;;;;;;;4.53;3.55;;;7.40;71.00;;;;;;4967660;28;20023;-72
2021/01/03 10:08:01;;;;;;;4.90;3.65;;;7.40;70.40;;;;;;4967263;28;20400;-74
2021/01/03 10:10:59;;;;;;;3.90;3.30;;;7.40;70.40;;;;;;4961614;28;20038;-73
2021/01/03 10:13:27;;;;;;;3.72;2.78;;;7.40;69.80;;;;;;4946390;28;20030;-73
2021/01/03 10:15:53;;;;;;;4.78;3.22;;;7.50;70.70;;;;;;4981519;28;20042;-72
2021/01/03 10:18:27;;;;;;;5.88;4.10;;;7.50;70.70;;;;;;4977311;28;20037;-74
2021/01/03 10:20:53;;;;;;;4.10;2.70;;;7.50;70.30;;;;;;4986019;28;20584;-76
2021/01/03 10:23:33;;;;;;;3.15;2.55;;;7.50;70.60;;;;;;4980418;28;20030;-75
2021/01/03 10:26:00;;;;;;;2.60;2.28;;;7.50;70.20;;;;;;4984615;28;20048;-74
2021/01/03 10:28:25;;;;;;;3.40;2.50;;;7.60;70.70;;;;;;4988288;28;20022;-74
2021/01/03 10:30:51;;;;;;;4.07;2.55;;;7.60;70.60;;;;;;4994863;28;20088;-76
2021/01/03 10:33:16;;;;;;;3.05;2.15;;;7.60;70.40;;;;;;4994968;28;20065;-75
2021/01/03 10:35:42;;;;;;;3.00;2.53;;;7.60;70.50;;;;;;4989056;28;20095;-75
2021/01/03 10:38:08;;;;;;;3.67;2.83;;;7.70;70.60;;;;;;4995237;28;20045;-74
2021/01/03 10:40:35;;;;;;;5.25;3.15;;;7.70;70.50;;;;;;4988282;28;20034;-75
2021/01/03 10:43:01;;;;;;;4.68;3.50;;;7.90;70.50;;;;;;4993702;28;20407;-74
2021/01/03 10:45:26;;;;;;;5.38;3.55;;;7.70;70.40;;;;;;4988329;28;20034;-75
2021/01/03 10:47:52;;;;;;;3.25;2.95;;;7.70;70.40;;;;;;4995648;28;20030;-74
2021/01/03 10:50:20;;;;;;;3.88;3.05;;;7.80;70.40;;;;;;4977917;28;20036;-74
2021/01/03 10:52:46;;;;;;;4.20;2.95;;;7.80;70.40;;;;;;4970433;28;20176;-74
2021/01/03 10:55:13;;;;;;;3.30;2.53;;;7.80;70.30;;;;;;4976337;28;20117;-74
2021/01/03 10:57:39;;;;;;;3.90;2.67;;;7.80;70.30;;;;;;4968868;28;20101;-75
2021/01/03 11:00:08;;;;;;;3.47;2.78;;;7.90;70.30;;;;;;4975229;28;20050;-75
2021/01/03 11:02:34;;;;;;;4.13;3.13;;;7.90;70.20;;;;;;4979824;28;20495;-75
2021/01/03 11:04:59;;;;;;;4.50;3.13;;;7.90;70.10;;;;;;4982903;28;20037;-75
2021/01/03 11:07:25;;;;;;;4.65;3.72;;;7.90;69.90;;;;;;4971919;28;20096;-75
2021/01/03 11:09:50;;;;;;;4.47;3.33;;;7.90;69.70;;;;;;4980344;28;20046;-75
2021/01/03 11:12:18;;;;;;;3.80;3.10;;;7.90;69.70;;;;;;4974653;28;20040;-75
2021/01/03 11:14:43;;;;;;;4.45;3.47;;;7.90;69.90;;;;;;4968194;28;20034;-75
2021/01/03 11:17:13;;;;;;;4.53;3.13;;;7.90;69.80;;;;;;4978686;28;20034;-75
2021/01/03 11:19:39;;;;;;;4.53;3.25;;;7.90;69.60;;;;;;4976479;28;20034;-75
2021/01/03 11:22:13;;;;;;;3.53;3.13;;;7.90;69.40;;;;;;4986829;28;20034;-75
2021/01/03 11:24:41;;;;;;;2.90;2.55;;;7.90;69.50;;;;;;4985273;28;20483;-76
2021/01/03 11:27:15;;;;;;;3.30;2.33;;;7.90;69.50;;;;;;4981287;28;20042;-77
2021/01/03 11:29:41;;;;;;;4.50;3.28;;;7.90;69.50;;;;;;4976531;28;20408;-76
2021/01/03 11:32:11;;;;;;;2.75;2.35;;;7.90;69.40;;;;;;4980047;28;20042;-77
2021/01/03 11:34:37;;;;;;;3.13;2.45;;;7.90;69.60;;;;;;4975537;28;20403;-76
2021/01/03 11:37:07;;;;;;;5.03;3.45;;;7.90;69.70;;;;;;4979349;28;20034;-77
2021/01/03 11:39:34;;;;;;;4.20;3.33;;;7.90;69.70;;;;;;4975821;28;20031;-75
2021/01/03 11:42:02;;;;;;;5.07;3.60;;;8.00;69.70;;;;;;4981342;28;20045;-74
2021/01/03 11:44:28;;;;;;;4.85;3.47;;;7.90;69.40;;;;;;4987377;28;20038;-74
2021/01/03 11:47:01;;;;;;;8.10;5.63;;;7.90;69.40;;;;;;4980503;28;20117;-75
2021/01/03 11:49:27;;;;;;;6.47;5.35;;;7.90;69.20;;;;;;4979348;28;20026;-75
2021/01/03 11:51:53;;;;;;;4.90;3.88;;;7.90;69.40;;;;;;4973225;28;20026;-75
2021/01/03 11:54:19;;;;;;;8.65;6.20;;;7.90;69.50;;;;;;4974378;28;20037;-74
2021/01/03 11:56:46;;;;;;;8.13;5.47;;;7.90;69.40;;;;;;4967598;28;20023;-74
2021/01/03 11:59:11;;;;;;;6.13;4.80;;;8.00;69.40;;;;;;4972905;28;20034;-74
2021/01/03 12:01:37;;;;;;;4.75;3.90;;;8.00;69.20;;;;;;4973064;28;20026;-72
2021/01/03 12:04:03;;;;;;;5.28;4.38;;;8.00;69.30;;;;;;4971174;28;20030;-74
2021/01/03 12:06:28;;;;;;;6.82;5.03;;;8.00;69.40;;;;;;4967389;28;20491;-74
2021/01/03 12:08:54;;;;;;;6.72;5.32;;;7.90;69.10;;;;;;4964918;28;20399;-74
2021/01/03 12:11:22;;;;;;;5.68;4.60;;;7.90;69.00;;;;;;4983799;28;20117;-75
2021/01/03 12:13:49;;;;;;;4.57;3.83;;;7.90;68.90;;;;;;4987836;28;20033;-73
2021/01/03 12:16:24;;;;;;;3.72;3.28;;;7.90;69.00;;;;;;4982409;28;20080;-74
2021/01/03 12:18:53;;;;;;;4.30;3.78;;;7.90;68.60;;;;;;4962368;28;20022;-74
2021/01/03 12:21:30;;;;;;;4.85;3.55;;;8.00;69.00;;;;;;4967890;28;20038;-74
2021/01/03 12:23:56;;;;;;;4.60;3.20;;;7.90;68.70;;;;;;4962992;28;20030;-73
2021/01/03 12:26:24;;;;;;;3.22;2.90;;;7.90;68.80;;;;;;4982675;28;20042;-74
2021/01/03 12:28:49;;;;;;;4.72;3.08;;;7.90;69.00;;;;;;4959803;28;20038;-73
2021/01/03 12:31:16;;;;;;;3.95;3.55;;;7.90;69.10;;;;;;4972752;28;20034;-74
2021/01/03 12:33:43;;;;;;;3.92;3.00;;;7.90;68.90;;;;;;4974176;28;20038;-75
2021/01/03 12:36:09;;;;;;;3.33;2.85;;;7.90;69.10;;;;;;4977423;28;20046;-75
2021/01/03 12:38:35;;;;;;;3.72;2.95;;;7.90;69.10;;;;;;4973511;28;20034;-74
2021/01/03 12:41:01;;;;;;;5.00;3.50;;;7.90;69.20;;;;;;4969608;28;20036;-74
2021/01/03 12:43:27;;;;;;;5.35;3.28;;;7.80;69.10;;;;;;4973091;28;20038;-74
2021/01/03 12:45:53;;;;;;;3.15;2.70;;;7.80;69.00;;;;;;4968907;28;20049;-74
2021/01/03 12:48:18;;;;;;;3.47;2.22;;;7.90;69.20;;;;;;4974132;28;20042;-74
2021/01/03 12:50:44;;;;;;;2.25;2.03;;;7.90;69.30;;;;;;4975271;28;20042;-74
2021/01/03 12:53:09;;;;;;;2.50;2.13;;;7.90;69.80;;;;;;4969660;28;20458;-75
2021/01/03 12:55:35;;;;;;;3.30;2.78;;;7.90;69.30;;;;;;4974141;28;20045;-74
2021/01/03 12:58:00;;;;;;;3.42;2.85;;;7.90;69.10;;;;;;4968624;28;20030;-74
2021/01/03 13:00:26;;;;;;;3.03;2.30;;;7.90;69.10;;;;;;4973698;28;20034;-74
2021/01/03 13:02:52;;;;;;;2.95;2.65;;;7.90;69.10;;;;;;4967302;28;20526;-74
2021/01/03 13:05:19;;;;;;;3.17;2.60;;;7.90;69.20;;;;;;4969968;28;20053;-74
2021/01/03 13:07:45;;;;;;;3.20;2.58;;;7.90;69.10;;;;;;4983948;28;20431;-74
2021/01/03 13:10:12;;;;;;;2.88;2.17;;;8.00;69.20;;;;;;4966804;28;20030;-74
2021/01/03 13:12:38;;;;;;;2.45;2.08;;;7.90;69.20;;;;;;4970770;28;20121;-73
2021/01/03 13:15:06;;;;;;;3.17;2.33;;;7.90;69.30;;;;;;4967964;28;20126;-75